Time;durP1;ratioP1;P1;durP2;ratioP2;P2;SDS_P1;SDS_P2;PMS_P1;PMS_P2;Temp;Humidity;BMP_temperature;BMP_pressure;BME280_temperature;BME280_humidity;BME280_pressure;Samples;Min_cycle;Max_cycle;Signal;HPM_P1;HPM_P2
2022/06/30 00:00:01;;;;;;;9.27;4.63;;;21.40;99.90;;;;;;5094462;28;20505;-74
2022/06/30 00:02:26;;;;;;;13.43;5.18;;;21.20;99.90;;;;;;5088704;28;20385;-73
2022/06/30 00:04:52;;;;;;;14.60;5.20;;;21.00;99.90;;;;;;5094764;28;20031;-74
2022/06/30 00:07:18;;;;;;;9.43;4.90;;;21.10;99.90;;;;;;5091644;28;20069;-74
2022/06/30 00:09:44;;;;;;;13.07;5.40;;;21.10;99.90;;;;;;5094643;28;20108;-74
2022/06/30 00:12:09;;;;;;;10.85;5.07;;;21.20;99.90;;;;;;5091367;28;20073;-73
2022/06/30 00:14:35;;;;;;;9.35;4.70;;;21.20;99.90;;;;;;5092889;28;20085;-75
2022/06/30 00:17:01;;;;;;;15.40;5.22;;;21.10;99.90;;;;;;5093638;28;20032;-73
2022/06/30 00:19:26;;;;;;;10.43;5.10;;;21.10;99.90;;;;;;5089560;28;20036;-73
2022/06/30 00:21:52;;;;;;;11.45;5.80;;;21.20;99.90;;;;;;5094181;28;20109;-74
2022/06/30 00:24:17;;;;;;;12.02;5.43;;;21.00;99.90;;;;;;5093261;28;20539;-73
2022/06/30 00:26:43;;;;;;;12.02;4.35;;;21.00;99.90;;;;;;5093296;28;20036;-74
2022/06/30 00:29:11;;;;;;;9.52;4.30;;;21.00;99.90;;;;;;5092067;28;20028;-73
2022/06/30 00:31:36;;;;;;;12.80;5.65;;;21.10;99.90;;;;;;5093969;28;20372;-74
2022/06/30 00:34:02;;;;;;;9.73;4.70;;;21.10;99.90;;;;;;5090388;28;20028;-73
2022/06/30 00:36:28;;;;;;;8.23;5.22;;;21.10;99.90;;;;;;5091832;28;20066;-74
2022/06/30 00:38:53;;;;;;;12.07;5.10;;;21.10;99.90;;;;;;5091444;28;20059;-74
2022/06/30 00:41:19;;;;;;;9.77;5.07;;;21.20;99.90;;;;;;5093336;28;20080;-73
2022/06/30 00:43:46;;;;;;;10.55;5.70;;;21.10;99.90;;;;;;5092235;28;20053;-73
2022/06/30 00:46:13;;;;;;;14.32;5.38;;;21.20;99.90;;;;;;5092343;28;20457;-73
2022/06/30 00:48:39;;;;;;;9.30;4.50;;;21.10;99.90;;;;;;5091545;28;20039;-74
2022/06/30 00:51:05;;;;;;;11.50;5.45;;;21.10;99.90;;;;;;5092608;28;20466;-74
2022/06/30 00:53:40;;;;;;;13.60;5.28;;;21.20;99.90;;;;;;5090907;28;20035;-74
2022/06/30 00:56:09;;;;;;;11.63;6.13;;;21.00;99.90;;;;;;5094066;28;20038;-73
2022/06/30 00:58:40;;;;;;;12.35;5.65;;;21.10;99.90;;;;;;5092801;28;20031;-74
2022/06/30 01:01:10;;;;;;;13.85;6.13;;;21.10;99.90;;;;;;5091252;28;20028;-73
2022/06/30 01:03:36;;;;;;;15.00;5.65;;;20.90;99.90;;;;;;5090223;28;20028;-74
2022/06/30 01:06:04;;;;;;;17.35;6.38;;;21.00;99.90;;;;;;5094053;28;20031;-73
2022/06/30 01:08:31;;;;;;;15.02;5.93;;;20.90;99.90;;;;;;5091747;28;20031;-73
2022/06/30 01:13:46;;;;;;;13.23;5.35;;;20.70;99.90;;;;;;5091987;28;20039;-74
2022/06/30 01:16:12;;;;;;;16.27;6.05;;;20.70;99.90;;;;;;5091991;28;20454;-73
2022/06/30 01:18:38;;;;;;;11.65;5.75;;;20.70;99.90;;;;;;5091567;28;20102;-74
2022/06/30 01:21:04;;;;;;;12.18;5.70;;;20.70;99.90;;;;;;5091826;28;20070;-74
2022/06/30 01:23:30;;;;;;;11.88;5.72;;;20.80;99.90;;;;;;5090896;28;20060;-73
2022/06/30 01:25:56;;;;;;;13.15;5.32;;;20.90;99.90;;;;;;5093294;28;20068;-73
2022/06/30 01:28:22;;;;;;;17.10;6.10;;;20.70;99.90;;;;;;5091766;28;20114;-74
2022/06/30 01:30:47;;;;;;;15.07;6.22;;;20.70;99.90;;;;;;5089882;28;20048;-74
2022/06/30 01:33:13;;;;;;;12.52;5.47;;;20.80;99.90;;;;;;5091165;28;20039;-74
2022/06/30 01:35:39;;;;;;;11.55;6.00;;;20.70;99.90;;;;;;5092733;28;20415;-73
2022/06/30 01:38:05;;;;;;;12.30;5.68;;;20.50;99.90;;;;;;5091880;28;20056;-73
2022/06/30 01:40:34;;;;;;;9.73;5.20;;;20.40;99.90;;;;;;5092232;28;20051;-73
2022/06/30 01:43:01;;;;;;;13.70;6.43;;;20.50;99.90;;;;;;5089583;28;20471;-73
2022/06/30 01:45:26;;;;;;;10.50;5.53;;;20.60;99.90;;;;;;5086874;28;20024;-75
2022/06/30 01:47:52;;;;;;;15.93;5.95;;;20.70;99.90;;;;;;5091794;28;20462;-74
2022/06/30 01:50:21;;;;;;;12.68;6.63;;;20.70;99.90;;;;;;5090533;28;20488;-74
2022/06/30 01:52:47;;;;;;;14.15;6.07;;;20.70;99.90;;;;;;5091195;28;20043;-74
2022/06/30 01:55:14;;;;;;;10.98;5.45;;;20.80;99.90;;;;;;5091480;28;20028;-73
2022/06/30 01:57:40;;;;;;;14.45;6.25;;;20.80;99.90;;;;;;5092022;28;20073;-74
2022/06/30 02:00:08;;;;;;;12.30;6.00;;;20.80;99.90;;;;;;5089673;28;20027;-73
2022/06/30 02:02:35;;;;;;;12.25;5.88;;;20.80;99.90;;;;;;5091150;28;20133;-74
2022/06/30 02:05:01;;;;;;;16.00;6.18;;;20.80;99.90;;;;;;5090356;28;20367;-73
2022/06/30 02:07:27;;;;;;;17.92;6.53;;;20.70;99.90;;;;;;5093103;28;20043;-73
2022/06/30 02:09:53;;;;;;;14.82;7.15;;;20.80;99.90;;;;;;5090436;28;20031;-73
2022/06/30 02:15:05;;;;;;;19.58;6.70;;;20.60;99.90;;;;;;5091388;28;20124;-73
2022/06/30 02:17:31;;;;;;;14.57;6.32;;;20.50;99.90;;;;;;5088256;28;20085;-73
2022/06/30 02:19:56;;;;;;;11.07;6.32;;;20.50;99.90;;;;;;5085157;28;20487;-73
2022/06/30 02:22:23;;;;;;;12.35;6.15;;;20.50;99.90;;;;;;5075773;28;20477;-73
2022/06/30 02:24:48;;;;;;;12.40;6.60;;;20.40;99.90;;;;;;5084829;28;20044;-73
2022/06/30 02:27:14;;;;;;;13.43;6.85;;;20.60;99.90;;;;;;5090471;28;20039;-73
2022/06/30 02:29:40;;;;;;;12.98;5.65;;;20.50;99.90;;;;;;5085973;28;20073;-73
2022/06/30 02:32:06;;;;;;;11.70;5.95;;;20.50;99.90;;;;;;5091740;28;20444;-73
2022/06/30 02:34:33;;;;;;;12.13;5.50;;;20.50;99.90;;;;;;5087156;28;20040;-72
2022/06/30 02:36:58;;;;;;;12.13;5.90;;;20.60;99.90;;;;;;5092201;28;20035;-73
2022/06/30 02:39:24;;;;;;;11.02;5.85;;;20.60;99.90;;;;;;5091247;28;20044;-74
2022/06/30 02:41:50;;;;;;;13.70;5.32;;;20.60;99.90;;;;;;5090936;28;20032;-73
2022/06/30 02:44:15;;;;;;;12.73;6.40;;;20.60;99.90;;;;;;5089856;28;20047;-73
2022/06/30 02:46:41;;;;;;;8.82;5.45;;;20.50;99.90;;;;;;5090194;28;20036;-73
2022/06/30 02:49:07;;;;;;;8.80;5.53;;;20.40;99.90;;;;;;5089955;28;20447;-73
2022/06/30 02:51:32;;;;;;;14.27;5.90;;;20.20;99.90;;;;;;5090077;28;20093;-73
2022/06/30 02:53:58;;;;;;;10.10;5.70;;;20.20;99.90;;;;;;5090615;28;20040;-73
2022/06/30 02:56:24;;;;;;;11.10;5.10;;;20.20;99.90;;;;;;5091456;28;20031;-73
2022/06/30 02:58:50;;;;;;;11.88;6.10;;;20.10;99.90;;;;;;5085496;28;20439;-73
2022/06/30 03:01:16;;;;;;;11.63;5.55;;;20.10;99.90;;;;;;5088245;28;20024;-74
2022/06/30 03:03:41;;;;;;;12.25;6.03;;;20.00;99.90;;;;;;5084539;28;20490;-73
2022/06/30 03:06:07;;;;;;;10.50;5.75;;;20.20;99.90;;;;;;5085623;28;20392;-73
2022/06/30 03:08:33;;;;;;;12.65;5.63;;;20.10;99.90;;;;;;5081926;28;20029;-73
2022/06/30 03:10:59;;;;;;;15.52;5.85;;;20.20;99.90;;;;;;5084813;28;20024;-74
2022/06/30 03:13:25;;;;;;;11.35;5.80;;;20.40;99.90;;;;;;5086339;28;20044;-74
2022/06/30 03:15:51;;;;;;;11.27;5.63;;;20.30;99.90;;;;;;5085150;28;20086;-73
2022/06/30 03:18:17;;;;;;;10.63;5.20;;;20.30;99.90;;;;;;5081091;28;20051;-73
2022/06/30 03:20:42;;;;;;;9.75;5.47;;;20.20;99.90;;;;;;5082818;28;20120;-73
2022/06/30 03:23:08;;;;;;;12.63;5.00;;;20.20;99.90;;;;;;5082443;28;20486;-73
2022/06/30 03:25:34;;;;;;;11.48;5.88;;;20.30;99.90;;;;;;5085034;28;20473;-73
2022/06/30 03:27:59;;;;;;;14.55;5.15;;;20.30;99.90;;;;;;5085699;28;20040;-73
2022/06/30 03:30:26;;;;;;;11.95;5.70;;;20.20;99.90;;;;;;5085587;28;20056;-73
2022/06/30 03:32:52;;;;;;;14.18;4.30;;;20.10;99.90;;;;;;5087221;28;20040;-73
2022/06/30 03:35:18;;;;;;;10.02;5.20;;;20.00;99.90;;;;;;5085813;28;20477;-73
2022/06/30 03:37:44;;;;;;;10.45;5.45;;;20.10;99.90;;;;;;5086399;28;20032;-73
2022/06/30 03:40:10;;;;;;;7.57;4.70;;;20.00;99.90;;;;;;5084286;28;20032;-73
2022/06/30 03:42:36;;;;;;;9.52;5.30;;;19.90;99.90;;;;;;5080529;28;20107;-73
2022/06/30 03:45:02;;;;;;;10.57;4.93;;;20.00;99.90;;;;;;5083646;28;20138;-72
2022/06/30 03:47:28;;;;;;;9.20;5.25;;;19.80;99.90;;;;;;5085904;28;20039;-73
2022/06/30 03:49:53;;;;;;;12.10;5.47;;;19.70;99.90;;;;;;5084470;28;20076;-72
2022/06/30 03:52:19;;;;;;;10.25;5.72;;;19.70;99.90;;;;;;5085938;28;20043;-72
2022/06/30 03:54:45;;;;;;;9.77;5.53;;;19.70;99.90;;;;;;5084265;28;20120;-73
2022/06/30 03:57:10;;;;;;;14.88;6.13;;;19.70;99.90;;;;;;5086529;28;20461;-73
2022/06/30 03:59:37;;;;;;;10.32;6.07;;;19.90;99.90;;;;;;5082911;28;20058;-73
2022/06/30 04:02:04;;;;;;;8.57;5.90;;;20.00;99.90;;;;;;5086577;28;20171;-72
2022/06/30 04:04:29;;;;;;;9.57;4.93;;;19.90;99.90;;;;;;5085434;28;20594;-73
2022/06/30 04:06:55;;;;;;;14.95;5.95;;;20.00;99.90;;;;;;5085607;28;20111;-75
2022/06/30 04:09:21;;;;;;;12.43;5.68;;;20.00;99.90;;;;;;5084549;28;20378;-73
2022/06/30 04:11:46;;;;;;;13.65;5.72;;;20.00;99.90;;;;;;5089818;28;20104;-73
2022/06/30 04:14:12;;;;;;;18.55;5.55;;;20.00;99.90;;;;;;5088844;28;20175;-73
2022/06/30 04:16:38;;;;;;;8.70;5.78;;;20.00;99.90;;;;;;5086283;28;20039;-73
2022/06/30 04:19:03;;;;;;;9.55;4.53;;;20.10;99.90;;;;;;5089374;28;20027;-73
2022/06/30 04:21:29;;;;;;;14.05;6.13;;;20.10;99.90;;;;;;5087847;28;20035;-73
2022/06/30 04:23:55;;;;;;;14.23;5.45;;;20.10;99.90;;;;;;5089599;28;20040;-73
2022/06/30 04:26:20;;;;;;;11.70;5.25;;;20.20;99.90;;;;;;5085524;28;20034;-72
2022/06/30 04:28:46;;;;;;;10.27;5.72;;;20.30;99.90;;;;;;5089098;28;20534;-73
2022/06/30 04:33:56;;;;;;;;;;;20.50;99.90;;;;;;5082599;28;20070;-73
2022/06/30 04:36:22;;;;;;;10.60;5.53;;;20.30;99.90;;;;;;5086901;28;19912;-74
2022/06/30 04:38:47;;;;;;;12.48;6.55;;;20.30;99.90;;;;;;5086635;28;20101;-74
2022/06/30 04:41:25;;;;;;;9.88;6.05;;;20.20;99.90;;;;;;5088417;28;20038;-74
2022/06/30 04:43:55;;;;;;;9.27;5.35;;;20.20;99.90;;;;;;5076992;28;20024;-74
2022/06/30 04:46:21;;;;;;;9.35;4.55;;;20.30;99.90;;;;;;5086156;28;20114;-74
2022/06/30 04:48:47;;;;;;;16.73;5.32;;;20.20;99.90;;;;;;5086901;28;20066;-74
2022/06/30 04:51:12;;;;;;;12.90;5.93;;;20.20;99.90;;;;;;5087863;28;20060;-74
2022/06/30 04:53:40;;;;;;;12.20;5.88;;;20.30;99.90;;;;;;5086051;28;20523;-74
2022/06/30 04:56:06;;;;;;;8.93;5.47;;;20.40;99.90;;;;;;5087454;28;20101;-75
2022/06/30 04:58:32;;;;;;;14.02;5.65;;;20.60;99.90;;;;;;5086131;28;20444;-74
2022/06/30 05:00:57;;;;;;;8.68;5.50;;;20.50;99.90;;;;;;5086662;28;20032;-74
2022/06/30 05:03:23;;;;;;;11.05;5.60;;;20.30;99.90;;;;;;5079924;28;20074;-74
2022/06/30 05:05:49;;;;;;;12.60;5.60;;;20.10;99.90;;;;;;5086073;28;20043;-74
2022/06/30 05:08:14;;;;;;;14.68;6.57;;;20.20;99.90;;;;;;5083906;28;20104;-74
2022/06/30 05:10:40;;;;;;;15.65;6.47;;;19.90;99.90;;;;;;5086164;28;20036;-74
2022/06/30 05:13:07;;;;;;;14.23;5.65;;;19.80;99.90;;;;;;5084295;28;20593;-74
2022/06/30 05:15:35;;;;;;;10.48;6.05;;;20.00;99.90;;;;;;5085704;28;20074;-75
2022/06/30 05:18:01;;;;;;;9.43;5.80;;;20.00;99.90;;;;;;5081340;28;20452;-74
2022/06/30 05:20:27;;;;;;;10.88;5.80;;;20.10;99.90;;;;;;5083484;28;20024;-73
2022/06/30 05:22:53;;;;;;;11.10;5.82;;;20.30;99.90;;;;;;5082864;28;22033;-73
2022/06/30 05:28:03;;;;;;;12.43;6.20;;;20.40;99.90;;;;;;5085656;28;20112;-75
2022/06/30 05:30:28;;;;;;;14.98;6.35;;;20.50;99.90;;;;;;5083837;28;20517;-73
2022/06/30 05:32:54;;;;;;;16.02;7.18;;;20.70;99.90;;;;;;5085857;28;20080;-72
2022/06/30 05:35:20;;;;;;;12.68;6.18;;;20.70;99.90;;;;;;5085242;28;20020;-74
2022/06/30 05:37:46;;;;;;;11.57;6.90;;;20.60;99.90;;;;;;5089794;28;20123;-75
2022/06/30 05:40:12;;;;;;;14.52;6.35;;;20.70;99.90;;;;;;5085999;28;20646;-76
2022/06/30 05:42:37;;;;;;;13.43;6.05;;;20.90;99.90;;;;;;5085504;28;20124;-73
2022/06/30 05:45:04;;;;;;;11.15;5.75;;;20.80;99.90;;;;;;5084941;28;20123;-74
2022/06/30 05:47:30;;;;;;;9.95;5.80;;;20.80;99.90;;;;;;5083275;28;20085;-73
2022/06/30 05:49:56;;;;;;;16.55;5.82;;;20.90;99.90;;;;;;5084609;28;21290;-74
2022/06/30 05:52:21;;;;;;;10.20;6.10;;;21.10;99.90;;;;;;5085099;28;20436;-74
2022/06/30 05:54:48;;;;;;;12.23;6.07;;;21.10;99.90;;;;;;5084870;28;20099;-73
2022/06/30 05:57:14;;;;;;;9.35;6.00;;;21.20;99.90;;;;;;5085068;28;20123;-76
2022/06/30 05:59:39;;;;;;;14.55;6.53;;;21.30;99.90;;;;;;5080140;28;20559;-76
2022/06/30 06:02:05;;;;;;;13.70;6.72;;;21.30;99.90;;;;;;5084303;28;20444;-75
2022/06/30 06:04:31;;;;;;;12.70;6.18;;;21.30;99.90;;;;;;5084492;28;20036;-76
2022/06/30 06:06:57;;;;;;;12.57;6.70;;;21.40;99.90;;;;;;5084673;28;20893;-76
2022/06/30 06:09:22;;;;;;;12.70;5.72;;;21.40;99.90;;;;;;5084752;28;20499;-76
2022/06/30 06:11:48;;;;;;;13.00;5.53;;;21.40;99.90;;;;;;5081934;28;20042;-76
2022/06/30 06:14:14;;;;;;;13.15;6.35;;;21.40;99.90;;;;;;5084528;28;20058;-76
2022/06/30 06:16:40;;;;;;;11.07;6.70;;;21.40;99.90;;;;;;5080881;28;20032;-76
2022/06/30 06:19:05;;;;;;;12.52;6.47;;;21.50;99.90;;;;;;5084194;28;20059;-78
2022/06/30 06:21:34;;;;;;;15.98;6.68;;;21.60;99.90;;;;;;5084260;28;20060;-73
2022/06/30 06:23:59;;;;;;;13.05;6.43;;;21.70;99.90;;;;;;5084526;28;20043;-74
2022/06/30 06:26:25;;;;;;;14.70;7.05;;;21.70;99.90;;;;;;5084487;28;20471;-74
2022/06/30 06:29:06;;;;;;;15.07;6.47;;;21.70;99.90;;;;;;5084531;28;20032;-73
2022/06/30 06:31:34;;;;;;;13.18;6.55;;;21.70;99.90;;;;;;5083724;28;20048;-73
2022/06/30 06:34:01;;;;;;;11.25;6.43;;;21.60;99.90;;;;;;5075769;28;20032;-75
2022/06/30 06:36:27;;;;;;;15.70;6.50;;;21.70;99.90;;;;;;5083655;28;20482;-74
2022/06/30 06:38:53;;;;;;;10.25;6.53;;;21.90;99.90;;;;;;5085220;28;20448;-74
2022/06/30 06:41:20;;;;;;;10.15;6.68;;;21.90;99.90;;;;;;5084538;28;20032;-76
2022/06/30 06:43:50;;;;;;;11.75;6.88;;;21.90;99.90;;;;;;5083944;28;20043;-75
2022/06/30 06:46:16;;;;;;;14.35;7.78;;;22.00;99.90;;;;;;5084271;28;20032;-78
2022/06/30 06:48:42;;;;;;;12.40;7.00;;;22.00;99.90;;;;;;5082401;28;20115;-76
2022/06/30 06:51:09;;;;;;;10.35;5.60;;;22.00;99.90;;;;;;5076999;28;20130;-77
2022/06/30 06:53:36;;;;;;;8.55;5.80;;;22.00;99.90;;;;;;5080832;28;20461;-76
2022/06/30 06:56:02;;;;;;;10.48;6.30;;;22.10;99.90;;;;;;5083375;28;20047;-77
2022/06/30 06:58:27;;;;;;;11.60;7.13;;;22.30;99.90;;;;;;5082874;28;20024;-76
2022/06/30 07:00:54;;;;;;;12.95;6.38;;;22.40;99.90;;;;;;5082751;28;20039;-76
2022/06/30 07:03:20;;;;;;;10.05;5.97;;;22.60;99.90;;;;;;5081265;28;20139;-74
2022/06/30 07:05:46;;;;;;;17.20;7.25;;;22.80;99.90;;;;;;5082863;28;20130;-74
2022/06/30 07:08:12;;;;;;;14.02;7.70;;;23.00;99.90;;;;;;5080837;28;20595;-74
2022/06/30 07:10:38;;;;;;;11.23;6.82;;;23.00;99.90;;;;;;5083064;28;20053;-73
2022/06/30 07:13:03;;;;;;;12.32;6.47;;;23.30;99.90;;;;;;5082806;28;20055;-74
2022/06/30 07:15:29;;;;;;;13.50;6.40;;;23.50;99.90;;;;;;5081543;28;20089;-76
2022/06/30 07:17:55;;;;;;;19.42;7.50;;;23.80;99.90;;;;;;5082328;28;20035;-73
2022/06/30 07:20:21;;;;;;;18.65;6.70;;;24.10;99.90;;;;;;5082453;28;20021;-74
2022/06/30 07:22:47;;;;;;;12.57;6.47;;;24.40;99.90;;;;;;5083635;28;20040;-73
2022/06/30 07:25:13;;;;;;;11.88;6.55;;;24.60;99.90;;;;;;5078491;28;20089;-72
2022/06/30 07:27:39;;;;;;;15.95;6.65;;;24.70;99.90;;;;;;5083487;28;20032;-72
2022/06/30 07:30:05;;;;;;;11.25;5.65;;;24.90;99.90;;;;;;5082960;28;20418;-77
2022/06/30 07:32:30;;;;;;;11.88;6.32;;;25.10;99.90;;;;;;5083957;28;20473;-73
2022/06/30 07:34:56;;;;;;;17.42;7.43;;;25.50;99.50;;;;;;5083982;28;20028;-74
2022/06/30 07:37:22;;;;;;;12.82;5.90;;;26.50;99.00;;;;;;5084116;28;20603;-74
2022/06/30 07:39:47;;;;;;;11.50;5.65;;;27.10;98.10;;;;;;5083231;28;20081;-74
2022/06/30 07:42:13;;;;;;;11.98;6.07;;;27.90;96.40;;;;;;5081318;28;20094;-74
2022/06/30 07:44:39;;;;;;;11.25;6.03;;;28.20;95.40;;;;;;5084059;28;20032;-76
2022/06/30 07:47:05;;;;;;;15.02;5.75;;;28.90;94.60;;;;;;5087219;28;20100;-77
2022/06/30 07:49:30;;;;;;;14.43;5.75;;;28.80;94.50;;;;;;5087391;28;20436;-76
2022/06/30 07:51:56;;;;;;;9.52;6.18;;;29.00;94.60;;;;;;5087617;28;20150;-76
2022/06/30 07:54:22;;;;;;;11.60;6.10;;;28.60;94.20;;;;;;5087833;28;20024;-74
2022/06/30 07:56:47;;;;;;;11.70;5.80;;;28.20;94.90;;;;;;5086691;28;20040;-74
2022/06/30 07:59:13;;;;;;;11.18;5.55;;;27.80;95.40;;;;;;5085049;28;20032;-75
2022/06/30 08:01:39;;;;;;;12.32;5.20;;;27.70;95.90;;;;;;5087294;28;20024;-74
2022/06/30 08:04:05;;;;;;;13.63;5.82;;;27.60;95.50;;;;;;5087007;28;20576;-74
2022/06/30 08:06:31;;;;;;;12.45;5.93;;;27.40;95.10;;;;;;5087068;28;20027;-76
2022/06/30 08:08:57;;;;;;;13.25;6.07;;;27.30;95.20;;;;;;5085962;28;20382;-74
2022/06/30 08:11:23;;;;;;;11.32;5.60;;;27.40;95.50;;;;;;5086533;28;20032;-75
2022/06/30 08:13:48;;;;;;;10.90;5.72;;;27.20;95.90;;;;;;5085157;28;20497;-74
2022/06/30 08:16:15;;;;;;;13.45;5.65;;;27.40;95.20;;;;;;5082355;28;20032;-75
2022/06/30 08:18:42;;;;;;;9.70;5.03;;;27.20;95.00;;;;;;5086727;28;20028;-75
2022/06/30 08:21:09;;;;;;;12.43;5.82;;;27.10;95.20;;;;;;5087379;28;20059;-74
2022/06/30 08:23:35;;;;;;;8.30;5.57;;;27.20;95.10;;;;;;5086535;28;20051;-73
2022/06/30 08:26:01;;;;;;;10.80;5.32;;;27.60;94.90;;;;;;5086864;28;20039;-74
2022/06/30 08:28:27;;;;;;;13.45;5.30;;;27.20;95.10;;;;;;5086070;28;20039;-74
2022/06/30 08:30:52;;;;;;;10.80;4.95;;;27.50;95.20;;;;;;5084846;28;20125;-75
2022/06/30 08:33:18;;;;;;;11.65;5.22;;;27.40;94.70;;;;;;5084851;28;20075;-75
2022/06/30 08:35:44;;;;;;;9.57;4.95;;;27.40;94.60;;;;;;5086932;28;20039;-74
2022/06/30 08:38:10;;;;;;;8.95;5.43;;;27.20;94.90;;;;;;5084860;28;20028;-75
2022/06/30 08:43:27;;;;;;;12.75;5.35;;;27.80;94.40;;;;;;5084094;28;20047;-74
2022/06/30 08:45:54;;;;;;;11.52;5.40;;;28.00;94.70;;;;;;5084818;28;20383;-74
2022/06/30 08:48:20;;;;;;;10.82;5.55;;;27.60;94.80;;;;;;5083441;28;20063;-74
2022/06/30 08:50:47;;;;;;;12.35;5.60;;;27.90;94.80;;;;;;5080983;28;20122;-74
2022/06/30 08:53:16;;;;;;;9.90;5.78;;;28.00;94.20;;;;;;5085029;28;20055;-74
2022/06/30 08:55:42;;;;;;;13.93;5.38;;;27.90;94.20;;;;;;5084386;28;20039;-74
2022/06/30 08:58:09;;;;;;;10.88;4.90;;;28.10;93.50;;;;;;5085830;28;20028;-74
2022/06/30 09:00:38;;;;;;;13.38;5.65;;;28.20;94.10;;;;;;5086293;28;20035;-75
2022/06/30 09:03:04;;;;;;;13.15;5.57;;;28.30;93.60;;;;;;5086441;28;20032;-74
2022/06/30 09:05:31;;;;;;;6.35;4.40;;;28.40;93.50;;;;;;5083339;28;20032;-74
2022/06/30 09:07:57;;;;;;;10.52;4.80;;;28.10;93.00;;;;;;5086376;28;20058;-74
2022/06/30 09:10:24;;;;;;;10.05;5.28;;;28.20;93.40;;;;;;5086759;28;20428;-75
2022/06/30 09:13:02;;;;;;;10.07;4.60;;;28.40;93.20;;;;;;5086254;28;20038;-74
2022/06/30 09:15:32;;;;;;;7.07;4.95;;;28.60;93.30;;;;;;5082832;28;20355;-76
2022/06/30 09:18:00;;;;;;;8.30;5.47;;;28.30;93.20;;;;;;5083421;28;20035;-75
2022/06/30 09:20:40;;;;;;;10.00;4.75;;;28.70;92.80;;;;;;5084211;28;20501;-75
2022/06/30 09:23:29;;;;;;;7.57;4.68;;;28.60;92.70;;;;;;5080292;28;20499;-74
2022/06/30 09:25:58;;;;;;;9.18;5.00;;;28.60;92.40;;;;;;5085135;28;20161;-81
2022/06/30 09:28:41;;;;;;;9.35;4.03;;;28.80;92.50;;;;;;5084744;28;20024;-74
2022/06/30 09:31:11;;;;;;;8.60;4.80;;;29.10;92.00;;;;;;5085894;28;20059;-77
2022/06/30 09:33:41;;;;;;;8.45;4.63;;;29.30;92.70;;;;;;5084707;28;20110;-74
2022/06/30 09:36:28;;;;;;;8.85;5.07;;;29.30;92.70;;;;;;5085959;28;20032;-77
2022/06/30 09:39:13;;;;;;;8.38;4.45;;;29.80;91.90;;;;;;5085362;28;20042;-75
2022/06/30 09:41:41;;;;;;;17.88;5.40;;;29.80;91.40;;;;;;5082570;28;20040;-76
2022/06/30 09:44:17;;;;;;;12.60;5.20;;;29.90;92.20;;;;;;5086327;28;20036;-74
2022/06/30 09:47:02;;;;;;;10.73;4.70;;;30.20;91.60;;;;;;5083889;28;20032;-75
2022/06/30 09:49:39;;;;;;;9.07;4.78;;;29.90;91.30;;;;;;5084719;28;21003;-76
2022/06/30 09:52:22;;;;;;;8.75;4.22;;;29.80;91.80;;;;;;5085505;28;20024;-75
2022/06/30 09:54:55;;;;;;;9.48;4.47;;;30.00;91.30;;;;;;5085636;28;20032;-75
2022/06/30 09:57:30;;;;;;;9.98;5.07;;;30.30;92.00;;;;;;5079613;28;20028;-76
2022/06/30 09:59:59;;;;;;;6.78;4.47;;;30.20;91.70;;;;;;5084704;28;20035;-74
2022/06/30 10:02:46;;;;;;;9.35;5.18;;;30.40;91.40;;;;;;5084055;28;20131;-75
2022/06/30 10:05:17;;;;;;;8.27;4.32;;;30.40;91.40;;;;;;5084685;28;20074;-75
2022/06/30 10:07:44;;;;;;;14.55;5.75;;;30.20;91.20;;;;;;5085069;28;20106;-74
2022/06/30 10:10:13;;;;;;;11.43;4.50;;;30.00;91.20;;;;;;5084739;28;20032;-75
2022/06/30 10:12:45;;;;;;;11.25;4.70;;;29.80;91.30;;;;;;5085538;28;20035;-75
2022/06/30 10:15:13;;;;;;;10.98;5.32;;;29.60;91.20;;;;;;5078637;28;20093;-75
2022/06/30 10:17:47;;;;;;;10.55;5.00;;;30.10;92.00;;;;;;5085242;28;20081;-75
2022/06/30 10:20:12;;;;;;;10.90;4.93;;;30.30;91.90;;;;;;5082756;28;20083;-74
2022/06/30 10:22:39;;;;;;;8.75;4.93;;;30.40;91.60;;;;;;5084893;28;20071;-76
2022/06/30 10:25:06;;;;;;;11.40;4.72;;;30.10;91.10;;;;;;5084943;28;20074;-75
2022/06/30 10:27:32;;;;;;;10.50;4.65;;;29.70;91.40;;;;;;5085119;28;20409;-75
2022/06/30 10:30:01;;;;;;;8.75;4.35;;;30.30;91.40;;;;;;5085018;28;20047;-75
2022/06/30 10:32:58;;;;;;;9.73;3.95;;;31.10;92.00;;;;;;5083290;28;20028;-75
2022/06/30 10:35:48;;;;;;;14.63;4.53;;;31.00;91.00;;;;;;5085010;28;20028;-75
2022/06/30 10:38:30;;;;;;;11.38;4.65;;;30.70;91.00;;;;;;5084656;28;20036;-75
2022/06/30 10:41:11;;;;;;;9.85;4.65;;;30.70;91.40;;;;;;5084469;28;20179;-76
2022/06/30 10:44:04;;;;;;;13.25;4.85;;;31.10;91.30;;;;;;5081341;28;20071;-75
2022/06/30 10:46:35;;;;;;;12.43;4.75;;;30.90;91.10;;;;;;5084059;28;20042;-75
2022/06/30 10:49:08;;;;;;;16.23;4.70;;;31.30;92.20;;;;;;5077458;28;20036;-74
2022/06/30 10:51:34;;;;;;;12.40;3.95;;;31.50;90.80;;;;;;5085054;28;20089;-74
2022/06/30 10:54:00;;;;;;;9.98;3.88;;;31.80;88.80;;;;;;5084111;28;20032;-74
2022/06/30 10:56:53;;;;;;;9.20;3.53;;;32.10;89.00;;;;;;5084353;28;20032;-75
2022/06/30 10:59:39;;;;;;;11.63;4.28;;;32.20;88.40;;;;;;5085898;28;20032;-75
2022/06/30 11:02:11;;;;;;;12.32;4.70;;;31.80;89.60;;;;;;5084201;28;20028;-75
2022/06/30 11:04:43;;;;;;;13.10;4.70;;;31.80;89.10;;;;;;5079390;28;20068;-75
2022/06/30 11:07:23;;;;;;;14.32;4.30;;;32.00;88.00;;;;;;5084142;28;20036;-76
2022/06/30 11:09:52;;;;;;;10.43;4.28;;;31.90;88.60;;;;;;5083450;28;20117;-75
2022/06/30 11:12:20;;;;;;;13.75;4.30;;;32.10;88.30;;;;;;5080827;28;20223;-75
2022/06/30 11:14:50;;;;;;;9.57;4.65;;;32.10;87.10;;;;;;5082855;28;20040;-76
2022/06/30 11:17:18;;;;;;;9.23;5.22;;;31.90;88.00;;;;;;5083721;28;20032;-75
2022/06/30 11:19:44;;;;;;;10.30;4.90;;;32.10;89.10;;;;;;5086313;28;20111;-75
2022/06/30 11:22:14;;;;;;;10.93;5.05;;;32.20;88.90;;;;;;5085817;28;20558;-77
2022/06/30 11:24:42;;;;;;;10.95;4.05;;;32.20;89.10;;;;;;5087734;28;20036;-78
2022/06/30 11:27:17;;;;;;;12.48;4.65;;;32.50;88.80;;;;;;5087840;28;20028;-75
2022/06/30 11:29:45;;;;;;;13.85;6.10;;;32.60;88.40;;;;;;5086032;28;20056;-75
2022/06/30 11:32:11;;;;;;;14.13;4.95;;;32.60;88.50;;;;;;5085414;28;20032;-75
2022/06/30 11:34:40;;;;;;;9.20;4.63;;;32.40;88.50;;;;;;5089156;28;20020;-75
2022/06/30 11:37:07;;;;;;;14.13;4.72;;;32.60;89.00;;;;;;5089077;28;20035;-75
2022/06/30 11:39:33;;;;;;;14.73;4.95;;;32.40;88.00;;;;;;5084877;28;20030;-78
2022/06/30 11:42:06;;;;;;;12.30;4.47;;;32.70;88.90;;;;;;5088997;28;20036;-76
2022/06/30 11:44:40;;;;;;;9.45;5.65;;;32.70;87.40;;;;;;5084480;28;20051;-76
2022/06/30 11:47:11;;;;;;;13.18;4.93;;;32.60;87.70;;;;;;5087241;28;20023;-76
2022/06/30 11:49:50;;;;;;;14.05;4.07;;;32.60;87.40;;;;;;5087403;28;20027;-75
2022/06/30 11:52:18;;;;;;;12.63;4.72;;;32.80;87.10;;;;;;5087774;28;20093;-75
2022/06/30 11:54:57;;;;;;;12.50;5.38;;;32.80;87.40;;;;;;5087654;28;20024;-75
2022/06/30 11:57:25;;;;;;;16.67;4.60;;;32.30;87.90;;;;;;5085806;28;20067;-76
2022/06/30 11:59:54;;;;;;;9.13;4.88;;;32.30;86.90;;;;;;5085434;28;20027;-76
2022/06/30 12:02:20;;;;;;;12.25;4.32;;;32.50;87.30;;;;;;5085287;28;20034;-75
2022/06/30 12:04:51;;;;;;;10.27;4.82;;;32.80;86.80;;;;;;5087380;28;20032;-77
2022/06/30 12:07:18;;;;;;;16.25;4.90;;;32.90;86.60;;;;;;5087680;28;20128;-75
2022/06/30 12:09:45;;;;;;;7.68;3.97;;;33.00;87.20;;;;;;5086968;28;20020;-76
2022/06/30 12:12:17;;;;;;;13.07;4.60;;;32.70;85.60;;;;;;5085969;28;20888;-77
2022/06/30 12:14:45;;;;;;;11.60;4.57;;;32.70;85.90;;;;;;5080823;28;20125;-75
2022/06/30 12:17:12;;;;;;;8.68;3.88;;;32.90;86.50;;;;;;5086681;28;20505;-76
2022/06/30 12:19:41;;;;;;;12.75;4.75;;;32.80;85.00;;;;;;5086824;28;20035;-75
2022/06/30 12:22:10;;;;;;;11.93;4.07;;;32.80;85.60;;;;;;5086698;28;20161;-76
2022/06/30 12:24:38;;;;;;;9.32;4.15;;;32.80;85.00;;;;;;5087447;28;20131;-75
2022/06/30 12:27:04;;;;;;;7.88;3.60;;;32.80;85.10;;;;;;5086892;28;20028;-76
2022/06/30 12:29:30;;;;;;;12.18;4.35;;;33.00;85.20;;;;;;5082672;28;20359;-75
2022/06/30 12:32:10;;;;;;;12.73;4.18;;;33.10;84.20;;;;;;5085975;28;20030;-76
2022/06/30 12:34:53;;;;;;;10.82;3.63;;;33.10;83.10;;;;;;5084462;28;20024;-74
2022/06/30 12:37:45;;;;;;;12.88;5.32;;;32.80;83.60;;;;;;5087396;28;20058;-75
2022/06/30 12:40:16;;;;;;;11.77;4.47;;;32.80;84.70;;;;;;5083782;28;20040;-75
2022/06/30 12:42:46;;;;;;;12.38;4.32;;;33.10;84.00;;;;;;5087257;28;20107;-75
2022/06/30 12:45:34;;;;;;;8.45;3.83;;;33.20;83.50;;;;;;5087191;28;20047;-77
2022/06/30 12:48:01;;;;;;;15.88;4.65;;;33.20;84.20;;;;;;5084754;28;20074;-76
2022/06/30 12:50:26;;;;;;;9.82;4.15;;;33.30;84.20;;;;;;5086858;28;20028;-78
2022/06/30 12:52:52;;;;;;;9.88;4.15;;;33.30;84.50;;;;;;5086567;28;20081;-77
2022/06/30 12:55:18;;;;;;;16.48;5.13;;;33.30;83.10;;;;;;5086080;28;20064;-76